Terminal Aerodrome Forecast
Issued by NWS

Home | Current Version | Previous Version | Text Only | Print | Product List | Glossary Off
Versions: 1 2 3 4 5 6 7 8 9 10 11 12 13

000
FTUS43 KICT 091100
TAFCNU
TAF
KCNU 091122Z 0912/1012 VRB03KT P6SM SKC
      TEMPO 0912/0913 4SM BR
     FM092300 12006KT P6SM SCT100=

USA.gov is the U.S. government's official web portal to all federal, state and local government web resources and services.